Time;durP1;ratioP1;P1;durP2;ratioP2;P2;SDS_P1;SDS_P2;PMS_P1;PMS_P2;Temp;Humidity;BMP_temperature;BMP_pressure;BME280_temperature;BME280_humidity;BME280_pressure;Samples;Min_cycle;Max_cycle;Signal;HPM_P1;HPM_P2
2021/12/03 00:00:57;;;;;;;14.27;7.13;;;;;;;-0.75;96.67;101083.59;5017102;28;20045;-89
2021/12/03 00:03:22;;;;;;;12.70;6.80;;;;;;;-0.73;96.74;101081.94;5035022;28;20473;-88
2021/12/03 00:05:50;;;;;;;14.30;6.22;;;;;;;-0.71;96.33;101085.47;5034670;28;20033;-89
2021/12/03 00:08:17;;;;;;;16.75;7.53;;;;;;;-0.69;96.63;101086.38;5034083;28;20054;-89
2021/12/03 00:10:44;;;;;;;14.68;7.53;;;;;;;-0.68;97.06;101080.34;5033712;28;20163;-89
2021/12/03 00:13:10;;;;;;;18.27;8.25;;;;;;;-0.69;97.19;101087.25;5035154;28;20497;-88
2021/12/03 00:15:36;;;;;;;17.65;8.18;;;;;;;-0.66;96.91;101089.94;5035096;28;20022;-88
2021/12/03 00:18:02;;;;;;;14.05;8.30;;;;;;;-0.72;97.13;101079.38;5034910;28;20053;-89
2021/12/03 00:20:28;;;;;;;15.82;7.65;;;;;;;-0.68;96.85;101089.00;5033525;28;20060;-89
2021/12/03 00:22:57;;;;;;;14.55;7.70;;;;;;;-0.66;96.97;101094.25;5034260;28;20053;-88
2021/12/03 00:25:24;;;;;;;11.23;7.45;;;;;;;-0.71;97.17;101085.47;5042402;28;20029;-89
2021/12/03 00:27:49;;;;;;;18.98;7.63;;;;;;;-0.68;96.78;101089.00;5040343;28;20043;-88
2021/12/03 00:30:16;;;;;;;16.48;8.50;;;;;;;-0.61;96.74;101097.00;5045036;28;20021;-89
2021/12/03 00:32:43;;;;;;;16.33;8.63;;;;;;;-0.61;96.36;101089.19;5046997;28;20057;-89
2021/12/03 00:35:13;;;;;;;17.13;8.73;;;;;;;-0.63;96.93;101094.34;5026777;28;20021;-89
2021/12/03 00:37:40;;;;;;;13.90;8.43;;;;;;;-0.61;96.86;101104.81;5048184;28;20033;-89
2021/12/03 00:40:12;;;;;;;18.35;8.25;;;;;;;-0.65;96.97;101086.47;5041947;28;20109;-89
2021/12/03 00:42:39;;;;;;;13.65;8.10;;;;;;;-0.63;97.00;101094.34;5040589;28;20024;-89
2021/12/03 00:45:08;;;;;;;21.02;10.18;;;;;;;-0.65;97.53;101096.00;5044129;28;20021;-89
2021/12/03 00:47:34;;;;;;;24.50;10.45;;;;;;;-0.65;97.38;101102.09;5042018;28;20094;-89
2021/12/03 00:50:00;;;;;;;15.82;10.05;;;;;;;-0.63;97.47;101096.94;5024656;28;20056;-88
2021/12/03 00:52:25;;;;;;;15.95;9.32;;;;;;;-0.65;97.39;101096.88;5042242;28;20061;-88
2021/12/03 00:54:51;;;;;;;19.60;9.18;;;;;;;-0.62;97.50;101108.22;5030758;28;20022;-88
2021/12/03 00:57:16;;;;;;;18.05;9.15;;;;;;;-0.66;97.02;101102.06;5040728;28;20114;-88
2021/12/03 00:59:42;;;;;;;16.17;10.82;;;;;;;-0.66;97.02;101108.16;5042219;28;20092;-88
2021/12/03 01:02:07;;;;;;;18.00;8.80;;;;;;;-0.65;96.90;101103.81;5041440;28;20087;-88
2021/12/03 01:04:33;;;;;;;18.48;9.68;;;;;;;-0.63;97.02;101109.06;5040090;28;20432;-89
2021/12/03 01:06:59;;;;;;;15.65;8.98;;;;;;;-0.68;96.81;101101.13;5023772;28;20041;-88
2021/12/03 01:09:24;;;;;;;16.48;8.43;;;;;;;-0.69;96.84;101102.88;5025296;28;20025;-88
2021/12/03 01:11:50;;;;;;;18.85;9.95;;;;;;;-0.70;97.04;101110.63;5027192;28;20038;-89
2021/12/03 01:14:17;;;;;;;21.80;10.63;;;;;;;-0.73;97.46;101105.34;5040490;28;20025;-88
2021/12/03 01:16:43;;;;;;;20.75;10.32;;;;;;;-0.71;97.14;101106.25;5041356;28;20025;-88
2021/12/03 01:19:09;;;;;;;20.27;10.55;;;;;;;-0.74;97.49;101101.84;5042473;28;20025;-89
2021/12/03 01:21:35;;;;;;;19.42;11.55;;;;;;;-0.71;97.50;101106.25;5056834;28;20084;-89
2021/12/03 01:24:00;;;;;;;21.88;11.68;;;;;;;-0.70;97.34;101116.69;5041726;28;20037;-88
2021/12/03 01:26:27;;;;;;;25.00;11.68;;;;;;;-0.65;97.85;101122.03;5033074;28;20030;-89
2021/12/03 01:28:52;;;;;;;26.17;12.13;;;;;;;-0.69;97.90;101115.88;5041276;28;20071;-89
2021/12/03 01:31:19;;;;;;;17.60;11.13;;;;;;;-0.62;97.99;101122.09;5036982;28;20025;-89
2021/12/03 01:33:46;;;;;;;22.52;11.93;;;;;;;-0.63;97.98;101112.56;5043593;28;20040;-89
2021/12/03 01:36:12;;;;;;;25.20;11.43;;;;;;;-0.61;97.90;101121.28;5042152;28;20037;-89
2021/12/03 01:38:38;;;;;;;24.30;11.90;;;;;;;-0.65;97.66;101115.09;5046532;28;20480;-88
2021/12/03 01:41:04;;;;;;;24.02;12.73;;;;;;;-0.65;97.78;101109.03;5042871;28;20033;-89
2021/12/03 01:43:31;;;;;;;17.30;10.57;;;;;;;-0.61;97.92;101105.69;5046838;28;20132;-88
2021/12/03 01:45:59;;;;;;;21.52;11.43;;;;;;;-0.62;97.50;101106.50;5025182;28;20048;-87
2021/12/03 01:48:26;;;;;;;19.73;11.90;;;;;;;-0.69;97.88;101095.06;5041176;28;20020;-89
2021/12/03 01:50:52;;;;;;;23.02;12.52;;;;;;;-0.67;97.87;101097.69;5056370;28;20045;-88
2021/12/03 01:53:21;;;;;;;24.25;11.80;;;;;;;-0.67;97.71;101089.88;5025887;28;20013;-89
2021/12/03 01:55:48;;;;;;;23.50;12.45;;;;;;;-0.66;97.96;101096.88;5040269;28;20401;-89
2021/12/03 01:58:15;;;;;;;20.42;12.35;;;;;;;-0.71;97.76;101083.72;5043858;28;20068;-89
2021/12/03 02:00:53;;;;;;;32.35;11.98;;;;;;;-0.65;97.96;101103.81;5039067;28;20372;-88
2021/12/03 02:03:23;;;;;;;24.13;12.60;;;;;;;-0.71;98.13;101096.72;5037416;28;20024;-89
2021/12/03 02:05:49;;;;;;;20.75;11.88;;;;;;;-0.70;97.79;101108.88;5022957;28;20621;-88
2021/12/03 02:08:15;;;;;;;28.58;15.20;;;;;;;-0.69;97.96;101096.78;5025312;28;20067;-89
2021/12/03 02:10:42;;;;;;;24.65;13.45;;;;;;;-0.66;98.09;101094.25;5025736;28;20025;-89
2021/12/03 02:13:10;;;;;;;24.50;14.00;;;;;;;-0.70;98.09;101095.00;5036408;28;20045;-88
2021/12/03 02:15:37;;;;;;;32.45;14.90;;;;;;;-0.68;98.40;101103.75;5040874;28;20017;-88
2021/12/03 02:18:03;;;;;;;31.00;15.73;;;;;;;-0.67;98.48;101100.28;5025328;28;20826;-89
2021/12/03 02:20:28;;;;;;;29.38;16.65;;;;;;;-0.70;98.16;101103.69;5025676;28;20025;-88
2021/12/03 02:22:54;;;;;;;34.45;15.68;;;;;;;-0.65;98.44;101115.09;5038772;28;20037;-88
2021/12/03 02:25:22;;;;;;;28.80;15.13;;;;;;;-0.64;98.41;101103.00;5038672;28;20034;-88
2021/12/03 02:27:51;;;;;;;29.50;17.77;;;;;;;-0.67;98.89;101097.69;5023186;28;20032;-88
2021/12/03 02:30:18;;;;;;;36.25;20.42;;;;;;;-0.62;98.95;101095.22;5026916;28;20452;-88
2021/12/03 02:32:46;;;;;;;33.63;17.90;;;;;;;-0.59;98.63;101098.81;5025640;28;20036;-89
2021/12/03 02:35:11;;;;;;;39.80;22.33;;;;;;;-0.59;99.02;101096.19;5038563;28;20054;-88
2021/12/03 02:37:37;;;;;;;43.72;22.83;;;;;;;-0.61;99.01;101086.59;5007963;28;20037;-88
2021/12/03 02:40:05;;;;;;;58.88;29.02;;;;;;;-0.52;99.45;101098.13;5038083;28;20029;-89
2021/12/03 02:42:31;;;;;;;53.95;27.92;;;;;;;-0.50;98.80;101083.41;5025248;28;20061;-89
2021/12/03 02:44:57;;;;;;;54.70;30.35;;;;;;;-0.49;98.99;101082.59;5038579;28;20053;-89
2021/12/03 02:47:22;;;;;;;55.53;29.92;;;;;;;-0.54;99.45;101084.19;5024960;28;20069;-88
2021/12/03 02:49:48;;;;;;;59.28;29.65;;;;;;;-0.46;99.63;101097.41;5008774;28;20090;-89
2021/12/03 02:52:13;;;;;;;63.70;29.23;;;;;;;-0.45;99.37;101091.34;5054977;28;21102;-89
2021/12/03 02:54:39;;;;;;;71.32;32.25;;;;;;;-0.48;99.69;101099.97;5040007;28;20025;-88
2021/12/03 02:57:05;;;;;;;80.43;34.60;;;;;;;-0.47;100.00;101108.63;5038854;28;20029;-89
2021/12/03 02:59:32;;;;;;;86.40;35.22;;;;;;;-0.47;99.63;101099.13;5038874;28;20445;-89
2021/12/03 03:01:59;;;;;;;77.47;30.27;;;;;;;-0.49;99.77;101086.94;5037475;28;20029;-89
2021/12/03 03:04:25;;;;;;;98.13;36.83;;;;;;;-0.45;100.00;101092.22;5012643;28;20056;-89
2021/12/03 03:06:50;;;;;;;66.40;28.20;;;;;;;-0.48;100.00;101084.34;5037221;28;20029;-89
2021/12/03 03:09:16;;;;;;;80.55;35.40;;;;;;;-0.47;100.00;101093.94;5025217;28;20025;-88
2021/12/03 03:11:42;;;;;;;92.22;36.17;;;;;;;-0.43;100.00;101082.75;5023959;28;20515;-88
2021/12/03 03:14:07;;;;;;;70.40;28.92;;;;;;;-0.42;100.00;101091.47;5046282;28;20033;-89
2021/12/03 03:16:34;;;;;;;91.53;39.25;;;;;;;-0.40;100.00;101079.34;5050793;28;20044;-88
2021/12/03 03:19:07;;;;;;;97.90;38.85;;;;;;;-0.41;100.00;101077.59;5032699;28;20032;-87
2021/12/03 03:21:33;;;;;;;101.18;39.10;;;;;;;-0.38;100.00;101084.59;5033673;28;20044;-87
2021/12/03 03:23:59;;;;;;;101.85;41.65;;;;;;;-0.37;100.00;101076.84;5032066;28;20373;-87
2021/12/03 03:26:24;;;;;;;93.97;40.15;;;;;;;-0.34;100.00;101081.25;5031973;28;20091;-86
2021/12/03 03:28:50;;;;;;;85.20;37.38;;;;;;;-0.36;100.00;101068.19;5048945;28;20124;-87
2021/12/03 03:31:16;;;;;;;99.30;39.28;;;;;;;-0.32;100.00;101075.25;5015913;28;20036;-86
2021/12/03 03:33:41;;;;;;;100.80;36.70;;;;;;;-0.32;100.00;101077.84;5042825;28;20418;-86
2021/12/03 03:36:06;;;;;;;69.38;32.83;;;;;;;-0.28;100.00;101082.28;5005594;28;20461;-86
2021/12/03 03:38:32;;;;;;;83.82;35.72;;;;;;;-0.28;100.00;101084.00;5039262;28;20124;-86
2021/12/03 03:40:58;;;;;;;85.20;34.15;;;;;;;-0.24;100.00;101091.94;5014939;28;20039;-86
2021/12/03 03:43:23;;;;;;;88.40;38.72;;;;;;;-0.20;100.00;101085.06;5037954;28;20026;-86
2021/12/03 03:45:51;;;;;;;89.30;39.92;;;;;;;-0.19;100.00;101089.47;5039838;28;20045;-86
2021/12/03 03:48:17;;;;;;;86.47;38.55;;;;;;;-0.18;100.00;101083.41;5029231;28;20457;-85
2021/12/03 03:50:42;;;;;;;92.53;40.00;;;;;;;-0.19;100.00;101068.63;5023864;28;20045;-86
2021/12/03 03:53:08;;;;;;;107.65;45.70;;;;;;;-0.15;100.00;101080.00;5056456;28;20457;-86
2021/12/03 03:55:33;;;;;;;82.10;39.10;;;;;;;-0.18;100.00;101075.59;5040659;28;20091;-84
2021/12/03 03:58:01;;;;;;;80.70;39.40;;;;;;;-0.16;100.00;101080.84;5020563;28;20087;-85
2021/12/03 04:00:37;;;;;;;68.88;31.65;;;;;;;-0.08;100.00;101067.16;5054984;28;20445;-85
2021/12/03 04:03:03;;;;;;;85.53;33.65;;;;;;;-0.13;100.00;101052.28;5038992;28;20053;-85
2021/12/03 04:05:28;;;;;;;54.53;28.05;;;;;;;-0.09;100.00;101056.72;5039713;28;20030;-85
2021/12/03 04:07:54;;;;;;;77.72;36.30;;;;;;;-0.11;100.00;101059.28;5039991;28;21089;-85
2021/12/03 04:10:20;;;;;;;72.85;31.98;;;;;;;-0.12;100.00;101059.25;5037109;28;20116;-85
2021/12/03 04:12:45;;;;;;;68.68;33.35;;;;;;;-0.12;100.00;101048.84;5042479;28;20090;-84
2021/12/03 04:15:12;;;;;;;48.55;22.92;;;;;;;-0.09;100.00;101047.19;5040305;28;20104;-85
2021/12/03 04:17:38;;;;;;;81.38;36.85;;;;;;;-0.09;100.00;101044.59;5038566;28;20048;-85
2021/12/03 04:20:07;;;;;;;78.78;36.13;;;;;;;-0.08;100.00;101061.94;5041297;28;20037;-85
2021/12/03 04:22:34;;;;;;;74.53;35.65;;;;;;;-0.03;100.00;101062.94;5040592;28;20136;-85
2021/12/03 04:25:01;;;;;;;71.88;29.77;;;;;;;-0.03;100.00;101049.94;5042525;28;20154;-84
2021/12/03 04:27:27;;;;;;;71.53;32.50;;;;;;;-0.04;100.00;101044.72;5042955;28;20184;-84
2021/12/03 04:29:53;;;;;;;80.10;32.63;;;;;;;-0.05;100.00;101040.31;5044867;28;20093;-85
2021/12/03 04:32:19;;;;;;;69.95;31.13;;;;;;;-0.04;100.00;101047.31;5042139;28;20492;-85
2021/12/03 04:34:45;;;;;;;69.35;30.55;;;;;;;-0.04;100.00;101042.97;5041875;28;20094;-86
2021/12/03 04:37:11;;;;;;;85.72;35.25;;;;;;;-0.03;100.00;101051.66;5043365;28;20026;-84
2021/12/03 04:39:37;;;;;;;89.70;39.95;;;;;;;-0.03;100.00;101056.88;5041980;28;20026;-85
2021/12/03 04:42:03;;;;;;;84.28;36.05;;;;;;;-0.02;100.00;101053.44;5042006;28;20063;-85
2021/12/03 04:44:29;;;;;;;82.40;35.88;;;;;;;0.01;100.00;101063.91;5023351;28;20028;-85
2021/12/03 04:46:54;;;;;;;87.95;35.22;;;;;;;0.03;100.00;101064.84;5042503;28;20033;-85
2021/12/03 04:49:20;;;;;;;93.97;41.15;;;;;;;0.03;100.00;101054.44;5043403;28;20385;-85
2021/12/03 04:51:45;;;;;;;96.38;36.85;;;;;;;0.07;100.00;101056.25;5041800;28;20068;-86
2021/12/03 04:54:11;;;;;;;91.13;38.40;;;;;;;0.09;100.00;101054.56;5027144;28;20026;-85
2021/12/03 04:56:37;;;;;;;87.90;37.58;;;;;;;0.11;100.00;101045.06;5041346;28;20033;-85
2021/12/03 04:59:03;;;;;;;73.53;32.78;;;;;;;0.15;100.00;101051.25;5041439;28;20032;-85
2021/12/03 05:01:28;;;;;;;85.60;37.42;;;;;;;0.17;100.00;101054.75;5040664;28;20037;-86
2021/12/03 05:03:54;;;;;;;100.25;42.25;;;;;;;0.18;100.00;101035.69;4997461;28;20534;-85
2021/12/03 05:06:29;;;;;;;84.25;39.42;;;;;;;0.19;100.00;101035.72;5023521;28;20057;-85
2021/12/03 05:08:55;;;;;;;77.60;34.85;;;;;;;0.20;100.00;101044.44;5027560;28;20457;-85
2021/12/03 05:11:20;;;;;;;80.65;38.13;;;;;;;0.23;100.00;101033.19;5042634;28;20074;-85
2021/12/03 05:13:46;;;;;;;80.65;34.92;;;;;;;0.20;100.00;101023.59;5040795;28;20400;-86
2021/12/03 05:16:12;;;;;;;74.15;36.20;;;;;;;0.19;100.00;101019.19;5041536;28;20108;-85
2021/12/03 05:18:37;;;;;;;79.47;37.58;;;;;;;0.23;100.00;101018.44;5027896;28;20060;-86
2021/12/03 05:21:03;;;;;;;77.97;38.88;;;;;;;0.21;100.00;101009.72;5039057;28;20029;-86
2021/12/03 05:23:32;;;;;;;56.42;31.10;;;;;;;0.20;100.00;101014.03;5042642;28;20041;-85
2021/12/03 05:25:59;;;;;;;72.00;35.42;;;;;;;0.25;100.00;101015.84;5025078;28;20044;-86
2021/12/03 05:28:26;;;;;;;69.40;33.13;;;;;;;0.25;100.00;101023.66;5041311;28;20469;-85
2021/12/03 05:30:51;;;;;;;68.55;30.08;;;;;;;0.27;100.00;101014.16;5040946;28;20037;-86
2021/12/03 05:33:19;;;;;;;69.45;30.33;;;;;;;0.28;100.00;101022.03;5042453;28;20045;-85
2021/12/03 05:35:45;;;;;;;62.92;30.38;;;;;;;0.26;100.00;101015.91;5040025;28;20013;-85
2021/12/03 05:38:11;;;;;;;60.40;29.27;;;;;;;0.31;100.00;101024.69;5059067;28;20403;-86
2021/12/03 05:40:36;;;;;;;46.50;23.05;;;;;;;0.31;100.00;101016.88;5026801;28;20052;-86
2021/12/03 05:43:02;;;;;;;51.65;25.88;;;;;;;0.36;100.00;101022.19;5038647;28;20433;-85
2021/12/03 05:45:30;;;;;;;55.25;22.95;;;;;;;0.34;99.96;101026.50;5042710;28;20092;-85
2021/12/03 05:47:56;;;;;;;48.97;22.85;;;;;;;0.32;99.95;101022.97;5043882;28;20075;-85
2021/12/03 05:50:22;;;;;;;44.38;23.08;;;;;;;0.37;99.56;101026.56;5048335;28;20024;-86
2021/12/03 05:52:50;;;;;;;41.90;21.00;;;;;;;0.38;99.73;101031.81;5041352;28;20092;-86
2021/12/03 05:55:16;;;;;;;37.08;18.55;;;;;;;0.35;99.63;101015.25;5050387;28;20025;-86
2021/12/03 05:57:43;;;;;;;46.08;19.20;;;;;;;0.38;99.61;101025.72;5051799;28;20361;-86
2021/12/03 06:00:14;;;;;;;31.85;15.98;;;;;;;0.40;99.41;101024.91;5051613;28;20045;-85
2021/12/03 06:02:39;;;;;;;41.65;16.35;;;;;;;0.43;99.26;101035.41;5051927;28;20083;-86
2021/12/03 06:05:06;;;;;;;30.67;12.93;;;;;;;0.42;99.48;101033.66;5049909;28;20028;-85
2021/12/03 06:07:32;;;;;;;34.25;14.30;;;;;;;0.42;99.30;101027.53;5049824;28;20626;-85
2021/12/03 06:09:57;;;;;;;31.95;12.10;;;;;;;0.52;98.57;101033.84;5050192;28;20166;-86
2021/12/03 06:12:23;;;;;;;25.23;10.85;;;;;;;0.48;98.52;101024.22;5050271;28;20070;-86
2021/12/03 06:14:48;;;;;;;27.90;10.77;;;;;;;0.48;98.63;101025.09;5050219;28;20523;-85
2021/12/03 06:17:15;;;;;;;33.70;12.05;;;;;;;0.50;98.55;101023.41;5050388;28;20459;-85
2021/12/03 06:19:43;;;;;;;32.22;10.93;;;;;;;0.49;98.21;101012.94;5051820;28;20025;-85
2021/12/03 06:22:10;;;;;;;22.67;9.52;;;;;;;0.56;97.96;101013.09;5050040;28;20056;-86
2021/12/03 06:24:37;;;;;;;20.65;8.30;;;;;;;0.54;97.86;101011.28;5051434;28;20041;-86
2021/12/03 06:27:03;;;;;;;30.65;10.40;;;;;;;0.56;97.05;101010.47;5050004;28;20130;-85
2021/12/03 06:29:29;;;;;;;20.55;8.63;;;;;;;0.60;97.12;101011.44;5052098;28;20041;-86
2021/12/03 06:31:54;;;;;;;36.58;8.60;;;;;;;0.59;96.58;101012.28;5050295;28;20040;-85
2021/12/03 06:34:20;;;;;;;34.35;8.57;;;;;;;0.63;96.53;101008.91;5049888;28;20492;-85
2021/12/03 06:36:45;;;;;;;23.85;6.95;;;;;;;0.57;95.55;101000.94;5050410;28;20025;-86
2021/12/03 06:39:11;;;;;;;18.98;7.65;;;;;;;0.59;95.86;101007.97;5051841;28;20615;-85
2021/12/03 06:41:37;;;;;;;23.45;8.15;;;;;;;0.60;95.45;101008.84;5050426;28;20040;-85
2021/12/03 06:44:05;;;;;;;22.50;7.95;;;;;;;0.57;95.64;101008.75;5049706;28;20092;-86
2021/12/03 06:46:32;;;;;;;21.60;7.18;;;;;;;0.58;94.53;101013.13;5009472;28;20470;-86
2021/12/03 06:48:58;;;;;;;21.80;7.18;;;;;;;0.59;94.69;101004.47;5038768;28;20037;-86
2021/12/03 06:51:23;;;;;;;20.35;7.93;;;;;;;0.56;93.80;101014.81;5029970;28;20345;-85
2021/12/03 06:53:58;;;;;;;19.98;6.30;;;;;;;0.56;93.52;101018.31;5029450;28;20034;-85
2021/12/03 06:56:31;;;;;;;17.13;6.80;;;;;;;0.57;93.88;101016.56;5029673;28;20106;-85
2021/12/03 06:58:56;;;;;;;17.70;6.50;;;;;;;0.56;93.04;101020.91;5029447;28;20112;-85
2021/12/03 07:01:22;;;;;;;24.90;7.57;;;;;;;0.52;92.60;101008.69;5013191;28;20115;-86
2021/12/03 07:03:47;;;;;;;18.52;6.95;;;;;;;0.54;92.43;101021.72;5030280;28;20049;-85
2021/12/03 07:06:13;;;;;;;18.00;6.30;;;;;;;0.56;92.41;101010.47;5012659;28;20040;-85
2021/12/03 07:08:38;;;;;;;24.17;6.68;;;;;;;0.50;92.00;101004.28;4996587;28;20378;-85
2021/12/03 07:11:04;;;;;;;25.20;7.43;;;;;;;0.49;92.11;101005.09;5029137;28;20037;-86
2021/12/03 07:13:31;;;;;;;14.63;6.03;;;;;;;0.48;91.48;101001.63;5013130;28;20136;-85
2021/12/03 07:15:57;;;;;;;23.17;6.97;;;;;;;0.46;91.25;101000.72;5045937;28;20439;-86
2021/12/03 07:18:23;;;;;;;15.85;6.30;;;;;;;0.47;91.40;100989.47;5029432;28;20098;-86
2021/12/03 07:20:50;;;;;;;18.85;7.13;;;;;;;0.46;90.72;100999.84;5030924;28;20066;-86
2021/12/03 07:23:15;;;;;;;20.90;5.93;;;;;;;0.52;90.06;100985.22;5040083;28;20036;-86
2021/12/03 07:25:41;;;;;;;22.40;6.82;;;;;;;0.45;90.35;100991.16;5038919;28;20073;-87
2021/12/03 07:28:07;;;;;;;20.65;6.43;;;;;;;0.45;90.83;100985.94;5020604;28;20087;-85
2021/12/03 07:30:33;;;;;;;20.58;7.72;;;;;;;0.40;90.35;100990.16;5035467;28;20337;-86
2021/12/03 07:32:59;;;;;;;19.95;6.10;;;;;;;0.42;90.54;100985.84;5039633;28;20123;-86
2021/12/03 07:35:24;;;;;;;18.85;6.93;;;;;;;0.38;90.84;100989.25;5029483;28;20037;-86
2021/12/03 07:37:50;;;;;;;21.13;6.18;;;;;;;0.36;90.68;100988.34;5029857;28;20049;-86
2021/12/03 07:40:15;;;;;;;18.85;6.80;;;;;;;0.40;90.76;100987.56;4997555;28;20022;-85
2021/12/03 07:42:42;;;;;;;14.48;6.05;;;;;;;0.39;91.11;100985.78;5029662;28;20041;-86
2021/12/03 07:45:09;;;;;;;15.45;5.45;;;;;;;0.40;91.24;100998.00;5029988;28;20022;-86
2021/12/03 07:47:36;;;;;;;21.60;7.07;;;;;;;0.40;90.60;100993.66;5048891;28;20049;-86
2021/12/03 07:50:04;;;;;;;13.30;5.78;;;;;;;0.39;90.37;100991.00;5021128;28;20038;-86
2021/12/03 07:52:29;;;;;;;15.65;6.72;;;;;;;0.38;90.57;100997.06;5033077;28;20098;-85
2021/12/03 07:54:55;;;;;;;16.20;6.75;;;;;;;0.38;91.33;100994.47;5016255;28;20025;-86
2021/12/03 07:57:20;;;;;;;23.15;8.07;;;;;;;0.41;90.87;100997.13;5052350;28;20044;-86
2021/12/03 07:59:46;;;;;;;24.92;7.13;;;;;;;0.41;90.76;100989.31;5054489;28;20374;-86
2021/12/03 08:02:11;;;;;;;22.35;7.57;;;;;;;0.40;90.95;100990.16;5036609;28;20396;-86
2021/12/03 08:04:37;;;;;;;22.05;6.68;;;;;;;0.42;91.39;100985.84;5053089;28;20409;-86
2021/12/03 08:07:03;;;;;;;19.92;6.70;;;;;;;0.45;91.80;100980.72;5035314;28;20163;-86
2021/12/03 08:09:28;;;;;;;16.08;5.50;;;;;;;0.48;90.81;100980.78;5052854;28;20029;-86
2021/12/03 08:11:54;;;;;;;19.35;6.55;;;;;;;0.46;91.16;100985.06;5052024;28;20131;-86
2021/12/03 08:14:20;;;;;;;21.40;6.05;;;;;;;0.48;91.25;100985.13;5043636;28;20115;-86
2021/12/03 08:16:45;;;;;;;15.02;6.20;;;;;;;0.51;91.45;100982.56;5050670;28;20071;-86
2021/12/03 08:19:12;;;;;;;22.67;6.15;;;;;;;0.53;90.90;100986.09;5036414;28;20059;-86
2021/12/03 08:21:37;;;;;;;21.35;6.00;;;;;;;0.52;91.16;100984.31;5036724;28;20041;-86
2021/12/03 08:24:03;;;;;;;23.10;6.93;;;;;;;0.55;90.83;100977.47;5053084;28;20349;-86
2021/12/03 08:26:29;;;;;;;25.67;5.63;;;;;;;0.55;91.33;100980.06;5036383;28;20037;-86
2021/12/03 08:28:55;;;;;;;21.55;6.53;;;;;;;0.58;90.70;100985.34;5053761;28;20706;-86
2021/12/03 08:31:21;;;;;;;29.35;7.05;;;;;;;0.59;91.07;100979.31;5029246;28;20492;-83
2021/12/03 08:33:47;;;;;;;17.75;5.07;;;;;;;0.63;90.96;100977.63;5024502;28;20090;-83
2021/12/03 08:36:13;;;;;;;18.73;5.88;;;;;;;0.64;91.01;100981.97;5034627;28;20233;-83
2021/12/03 08:38:39;;;;;;;15.48;5.80;;;;;;;0.66;90.78;100974.19;5034407;28;20489;-83
2021/12/03 08:41:05;;;;;;;12.80;5.35;;;;;;;0.73;90.96;100986.50;5016228;28;20045;-84
2021/12/03 08:43:31;;;;;;;24.98;6.47;;;;;;;0.76;89.72;100978.75;5047183;28;20453;-84
2021/12/03 08:45:57;;;;;;;23.83;5.78;;;;;;;0.74;90.50;100978.75;5052449;28;20419;-84
2021/12/03 08:48:24;;;;;;;19.92;5.68;;;;;;;0.84;89.74;100985.88;5053214;28;20025;-83
2021/12/03 08:51:08;;;;;;;42.67;6.03;;;;;;;0.82;89.89;100966.72;5052672;28;20128;-84
2021/12/03 08:56:18;;;;;;;20.42;6.55;;;;;;;0.81;90.08;100964.06;5038920;28;20025;-84
2021/12/03 08:58:44;;;;;;;12.32;4.57;;;;;;;0.86;89.38;100957.22;5052622;28;20487;-85
2021/12/03 09:01:12;;;;;;;19.25;5.47;;;;;;;0.88;89.96;100968.56;5052541;28;20116;-84
2021/12/03 09:03:37;;;;;;;15.80;5.10;;;;;;;0.90;90.57;100961.66;5036276;28;20051;-84
2021/12/03 09:06:03;;;;;;;20.83;5.80;;;;;;;0.96;89.78;100956.53;5046352;28;20037;-84
2021/12/03 09:08:28;;;;;;;17.10;5.32;;;;;;;0.95;89.80;100973.06;5007798;28;20040;-84
2021/12/03 09:10:54;;;;;;;24.77;5.80;;;;;;;0.96;89.62;100959.16;5033949;28;20394;-84
2021/12/03 09:13:20;;;;;;;17.10;5.13;;;;;;;1.07;88.62;100954.16;5026860;28;20036;-84
2021/12/03 09:16:00;;;;;;;17.17;4.95;;;;;;;1.05;89.26;100953.25;5035487;28;20041;-84
2021/12/03 09:18:32;;;;;;;23.52;5.25;;;;;;;1.05;89.64;100942.81;5050979;28;20029;-84
2021/12/03 09:21:05;;;;;;;17.63;4.80;;;;;;;1.16;89.29;100954.31;5044869;28;20041;-84
2021/12/03 09:29:00;;;;;;;20.90;5.82;;;;;;;1.18;88.32;100936.09;5031148;28;20063;-84
2021/12/03 09:31:26;;;;;;;22.77;4.95;;;;;;;1.16;89.51;100936.03;5030466;28;20464;-84
2021/12/03 09:33:51;;;;;;;21.80;5.75;;;;;;;1.21;88.90;100951.78;5051364;28;20079;-84
2021/12/03 09:36:17;;;;;;;16.48;4.40;;;;;;;1.22;89.30;100936.19;5051221;28;20515;-84
2021/12/03 09:38:42;;;;;;;18.60;5.53;;;;;;;1.30;88.87;100946.75;5051360;28;20021;-84
2021/12/03 09:41:12;;;;;;;24.70;5.70;;;;;;;1.27;89.68;100939.75;5052696;28;20392;-84
2021/12/03 09:43:45;;;;;;;24.60;6.35;;;;;;;1.27;90.06;100926.69;5050948;28;20108;-84
2021/12/03 09:46:17;;;;;;;19.20;5.03;;;;;;;1.33;89.68;100925.91;5051021;28;20033;-84
2021/12/03 09:51:33;;;;;;;28.70;5.90;;;;;;;1.42;89.41;100920.00;5051041;28;20550;-84
2021/12/03 09:56:26;;;;;;;20.13;7.75;;;;;;;1.40;89.50;100906.91;5052322;28;20325;-85
2021/12/03 10:01:30;;;;;;;25.58;6.63;;;;;;;1.47;90.11;100885.28;5050884;28;20072;-85
2021/12/03 10:20:47;;;;;;;16.17;4.45;;;;;;;1.78;89.35;100879.63;5050057;28;20373;-85
2021/12/03 10:23:59;;;;;;;17.55;5.10;;;;;;;1.77;89.15;100877.91;5050818;28;20044;-87
2021/12/03 10:29:09;;;;;;;20.77;4.75;;;;;;;1.86;88.65;100860.63;5050237;28;20037;-85
2021/12/03 10:35:03;;;;;;;20.63;5.45;;;;;;;1.81;90.24;100836.19;5050477;28;20398;-85
2021/12/03 10:37:59;;;;;;;17.42;4.47;;;;;;;1.88;88.79;100838.03;5051872;28;20025;-85
2021/12/03 10:43:19;;;;;;;15.40;5.00;;;;;;;1.93;90.20;100812.84;5051668;28;20384;-85
2021/12/03 11:16:44;;;;;;;17.92;5.47;;;;;;;2.41;87.69;100766.38;5049821;28;20052;-85
2021/12/03 11:30:20;;;;;;;13.70;5.07;;;;;;;2.63;86.47;100725.63;5035529;28;20075;-86
2021/12/03 11:35:54;;;;;;;18.88;5.82;;;;;;;2.65;86.62;100715.19;5051109;28;20104;-85
2021/12/03 11:54:14;;;;;;;14.93;5.25;;;;;;;2.85;84.67;100699.66;5049364;28;20037;-86
2021/12/03 11:56:38;;;;;;;15.57;5.03;;;;;;;2.91;84.83;100699.69;5047301;28;20045;-85
2021/12/03 11:59:43;;;;;;;14.05;4.68;;;;;;;3.04;84.59;100672.72;5050332;28;20041;-86
2021/12/03 13:13:27;;;;;;;10.45;3.78;;;;;;;3.38;78.14;100576.06;5031590;28;20041;-86
2021/12/03 14:02:22;;;;;;;4.72;2.17;;;;;;;3.04;84.49;100523.59;5027604;28;20047;-87
2021/12/03 14:13:18;;;;;;;7.15;3.15;;;;;;;3.03;84.90;100516.66;5050690;28;20045;-86
2021/12/03 14:56:10;;;;;;;9.40;2.97;;;;;;;2.95;86.97;100515.75;5049232;28;20024;-87
2021/12/03 14:58:48;;;;;;;6.35;3.10;;;;;;;3.07;87.34;100522.78;5051111;28;20068;-87
2021/12/03 15:35:38;;;;;;;5.63;2.60;;;;;;;2.80;93.29;100482.56;4995653;28;20044;-84
2021/12/03 16:04:10;;;;;;;6.45;3.55;;;;;;;2.67;96.50;100458.13;5050557;28;20091;-86
2021/12/03 16:09:20;;;;;;;5.15;3.75;;;;;;;2.65;97.38;100453.75;5050881;28;20040;-86
2021/12/03 16:12:51;;;;;;;5.88;4.00;;;;;;;2.67;97.00;100450.28;5035027;28;20474;-86
2021/12/03 16:14:57;;;;;;;4.72;2.90;;;;;;;2.70;96.64;100447.66;5035750;28;20123;-86
2021/12/03 16:20:27;;;;;;;8.10;3.63;;;;;;;2.76;96.23;100438.94;5038843;28;20045;-86
2021/12/03 16:52:00;;;;;;;4.25;3.85;;;;;;;2.66;98.03;100421.50;5051874;28;20410;-86
2021/12/03 16:56:55;;;;;;;4.43;3.83;;;;;;;2.65;98.39;100418.00;5053217;28;20029;-86
2021/12/03 16:59:22;;;;;;;6.00;4.80;;;;;;;2.64;99.12;100416.25;5036037;28;20045;-86
2021/12/03 17:01:56;;;;;;;7.75;4.75;;;;;;;2.63;98.58;100417.13;5035512;28;20041;-86
2021/12/03 17:15:06;;;;;;;3.47;2.97;;;;;;;2.69;99.01;100413.66;5052565;28;20037;-86
2021/12/03 18:00:28;;;;;;;11.00;4.50;;;;;;;2.72;98.26;100315.19;5035350;28;20512;-86
2021/12/03 18:03:02;;;;;;;3.95;3.40;;;;;;;2.76;98.57;100313.44;5051542;28;20576;-86
2021/12/03 18:11:28;;;;;;;5.93;3.70;;;;;;;2.72;98.41;100306.47;5009210;28;20120;-87
2021/12/03 18:46:00;;;;;;;5.20;4.07;;;;;;;2.80;97.65;100292.53;5050351;28;20037;-87
2021/12/03 18:51:17;;;;;;;3.97;3.58;;;;;;;2.87;97.27;100297.75;5033683;28;20021;-88
2021/12/03 18:53:59;;;;;;;7.30;3.90;;;;;;;2.83;97.27;100286.44;5050041;28;20079;-88
2021/12/03 18:58:58;;;;;;;4.60;4.07;;;;;;;2.85;97.22;100295.16;5049369;28;20049;-87
2021/12/03 19:01:28;;;;;;;4.70;4.13;;;;;;;2.84;97.58;100303.00;5049803;28;20072;-88